Terminal Aerodrome Forecast
Issued by NWS Wilmington, NC

Home | Current Version | Previous Version | Text Only | Print | Product List | Glossary On
Versions: 1 2 3 4 5 6 7 8 9 10 11 12 13 14 15 16 17 18 19 20
000
FTUS42 KILM 230916 CCA
TAFMYR
TAF COR
KMYR 230916Z 2306/2406 21007KT P6SM FEW060
      TEMPO 2309/2310 5SM BR
     FM231300 25007KT P6SM VCSH SCT070
     FM231600 25006KT P6SM VCTS BKN090CB
     FM240000 21010KT P6SM BKN090=

USA.gov is the U.S. government's official web portal to all federal, state and local government web resources and services.